createdAt,value
2023-01-10T00:00:35.409Z,8.84
2023-01-10T00:03:03.206Z,8.91
2023-01-10T00:05:31.070Z,8.88
2023-01-10T00:07:59.070Z,8.80
2023-01-10T00:10:27.041Z,8.81
2023-01-10T00:13:12.490Z,8.94
2023-01-10T00:15:41.504Z,8.87
2023-01-10T00:18:09.442Z,8.78
2023-01-10T00:20:37.264Z,8.85
2023-01-10T00:23:06.915Z,8.73
2023-01-10T00:25:36.113Z,8.98
2023-01-10T00:28:07.259Z,8.80
2023-01-10T00:30:35.543Z,8.81
2023-01-10T00:33:07.928Z,8.74
2023-01-10T00:35:36.429Z,8.85
2023-01-10T00:40:58.735Z,8.86
2023-01-10T00:43:44.158Z,8.75
2023-01-10T00:46:12.364Z,8.81
2023-01-10T00:51:41.032Z,8.87
2023-01-10T00:54:14.283Z,8.78
2023-01-10T00:59:44.315Z,8.67
2023-01-10T01:02:11.913Z,8.85
2023-01-10T01:04:40.874Z,8.85
2023-01-10T01:07:09.344Z,8.75
2023-01-10T01:09:57.962Z,8.73
2023-01-10T01:12:25.652Z,8.85
2023-01-10T01:14:53.334Z,8.86
2023-01-10T01:17:21.281Z,8.71
2023-01-10T01:19:50.295Z,8.64
2023-01-10T01:22:17.992Z,8.67
2023-01-10T01:24:45.520Z,8.53
2023-01-10T01:27:13.144Z,8.66
2023-01-10T01:29:43.427Z,8.57
2023-01-10T01:32:11.320Z,8.59
2023-01-10T01:34:39.143Z,8.67
2023-01-10T01:37:08.305Z,8.54
2023-01-10T01:39:35.833Z,8.61
2023-01-10T01:42:03.586Z,8.60
2023-01-10T01:44:32.576Z,8.72
2023-01-10T01:47:03.560Z,8.71
2023-01-10T01:49:32.117Z,8.66
2023-01-10T01:52:02.624Z,8.58
2023-01-10T01:54:32.454Z,8.71
2023-01-10T01:57:36.614Z,8.74
2023-01-10T02:00:27.355Z,8.53
2023-01-10T02:03:02.972Z,8.67
2023-01-10T02:05:31.918Z,8.72
2023-01-10T02:08:02.022Z,8.54
2023-01-10T02:10:34.946Z,8.62
2023-01-10T02:13:05.953Z,8.65
2023-01-10T02:15:33.495Z,8.71
2023-01-10T02:18:01.692Z,8.51
2023-01-10T02:20:30.824Z,8.54
2023-01-10T02:23:19.857Z,8.54
2023-01-10T02:26:02.474Z,8.57
2023-01-10T02:28:50.213Z,8.42
2023-01-10T02:45:58.856Z,8.49
2023-01-10T02:48:26.440Z,8.34
2023-01-10T02:50:58.538Z,8.40
2023-01-10T02:53:28.626Z,8.40
2023-01-10T02:56:18.451Z,8.54
2023-01-10T02:58:59.437Z,8.56
2023-01-10T03:01:35.485Z,8.43
2023-01-10T03:04:07.656Z,8.40
2023-01-10T03:06:41.187Z,8.50
2023-01-10T03:09:12.874Z,8.36
2023-01-10T03:11:42.235Z,8.55
2023-01-10T03:14:14.769Z,8.41
2023-01-10T03:16:43.643Z,8.36
2023-01-10T03:19:13.364Z,8.54
2023-01-10T03:21:42.043Z,8.38
2023-01-10T03:24:12.068Z,8.45
2023-01-10T03:26:45.873Z,8.45
2023-01-10T03:29:19.673Z,8.37
2023-01-10T03:31:50.732Z,8.44
2023-01-10T03:34:18.288Z,8.42
2023-01-10T03:36:51.141Z,8.22
2023-01-10T03:39:23.592Z,8.33
2023-01-10T03:41:54.216Z,8.37
2023-01-10T03:44:44.786Z,8.37
2023-01-10T03:47:17.543Z,8.34
2023-01-10T03:49:48.022Z,8.29
2023-01-10T03:52:17.666Z,8.37
2023-01-10T03:54:45.864Z,8.35
2023-01-10T03:57:18.551Z,8.32
2023-01-10T03:59:47.462Z,8.40
2023-01-10T04:02:15.097Z,8.26
2023-01-10T04:04:42.994Z,8.33
2023-01-10T04:07:10.634Z,8.32
2023-01-10T04:09:38.302Z,8.45
2023-01-10T04:12:06.152Z,8.37
2023-01-10T04:14:33.837Z,8.21
2023-01-10T04:17:02.851Z,8.38
2023-01-10T04:19:30.463Z,8.22
2023-01-10T04:21:57.933Z,8.23
2023-01-10T04:24:25.685Z,8.30
2023-01-10T04:26:53.444Z,8.10
2023-01-10T04:29:20.943Z,8.31
2023-01-10T04:31:48.664Z,8.19
2023-01-10T04:34:32.919Z,8.35
2023-01-10T04:37:00.649Z,8.33
2023-01-10T04:39:28.399Z,8.24
2023-01-10T04:41:56.357Z,8.28
2023-01-10T04:47:16.760Z,8.38
2023-01-10T04:49:46.649Z,8.32
2023-01-10T04:52:14.526Z,8.09
2023-01-10T04:54:42.528Z,8.35
2023-01-10T04:57:10.727Z,8.21
2023-01-10T04:59:43.750Z,8.14
2023-01-10T05:02:11.925Z,8.34
2023-01-10T05:04:39.662Z,8.18
2023-01-10T05:07:08.852Z,8.28
2023-01-10T05:09:36.394Z,8.36
2023-01-10T05:12:04.282Z,8.34
2023-01-10T05:14:31.798Z,8.40
2023-01-10T05:16:59.546Z,8.35
2023-01-10T05:19:27.117Z,8.22
2023-01-10T05:21:57.431Z,8.35
2023-01-10T05:24:26.435Z,8.32
2023-01-10T05:26:54.192Z,8.43
2023-01-10T05:29:21.804Z,8.27
2023-01-10T05:31:51.809Z,8.24
2023-01-10T05:34:19.558Z,8.30
2023-01-10T05:36:47.211Z,8.11
2023-01-10T05:39:15.464Z,8.19
2023-01-10T05:41:45.383Z,8.43
2023-01-10T05:44:14.780Z,8.39
2023-01-10T05:46:42.859Z,8.28
2023-01-10T05:49:10.527Z,8.41
2023-01-10T05:51:38.139Z,8.40
2023-01-10T05:54:06.061Z,8.39
2023-01-10T05:56:34.044Z,8.28
2023-01-10T05:59:14.032Z,8.19
2023-01-10T06:02:02.369Z,8.24
2023-01-10T06:04:30.278Z,8.34
2023-01-10T06:09:39.730Z,8.25
2023-01-10T06:12:07.568Z,8.22
2023-01-10T06:14:36.733Z,8.25
2023-01-10T06:19:53.205Z,8.28
2023-01-10T06:22:20.695Z,8.22
2023-01-10T06:24:48.141Z,8.10
2023-01-10T06:27:15.717Z,8.12
2023-01-10T06:29:44.631Z,8.15
2023-01-10T06:32:12.543Z,8.07
2023-01-10T06:34:40.036Z,8.39
2023-01-10T06:37:08.410Z,8.34
2023-01-10T06:39:35.861Z,8.37
2023-01-10T06:42:03.361Z,8.30
2023-01-10T06:44:30.730Z,8.33
2023-01-10T06:46:59.533Z,8.42
2023-01-10T06:49:27.020Z,8.42
2023-01-10T06:51:54.480Z,8.16
2023-01-10T06:54:21.902Z,8.24
2023-01-10T06:56:49.583Z,8.19
2023-01-10T06:59:17.471Z,8.15
2023-01-10T07:01:44.935Z,8.28
2023-01-10T07:04:14.023Z,8.32
2023-01-10T07:06:42.284Z,8.25
2023-01-10T07:09:09.949Z,8.20
2023-01-10T07:11:37.638Z,8.16
2023-01-10T07:14:05.133Z,8.10
2023-01-10T07:16:32.780Z,8.18
2023-01-10T07:19:00.759Z,8.13
2023-01-10T07:21:29.696Z,8.01
2023-01-10T07:23:57.168Z,8.11
2023-01-10T07:26:24.615Z,8.14
2023-01-10T07:28:52.410Z,7.95
2023-01-10T07:31:21.090Z,8.18
2023-01-10T07:33:48.819Z,8.04
2023-01-10T07:36:16.752Z,7.91
2023-01-10T07:38:45.774Z,7.99
2023-01-10T07:41:13.229Z,8.03
2023-01-10T07:43:40.730Z,8.03
2023-01-10T07:46:09.613Z,8.14
2023-01-10T07:48:37.371Z,8.11
2023-01-10T07:51:05.881Z,8.10
2023-01-10T07:53:33.390Z,8.12
2023-01-10T07:56:03.163Z,8.13
2023-01-10T07:58:31.296Z,8.11
2023-01-10T08:00:59.349Z,8.20
2023-01-10T08:03:27.543Z,8.15
2023-01-10T08:05:59.663Z,7.92
2023-01-10T08:08:27.245Z,7.96
2023-01-10T08:10:54.725Z,8.11
2023-01-10T08:13:23.573Z,7.66
2023-01-10T08:15:52.502Z,7.82
2023-01-10T08:18:21.221Z,7.93
2023-01-10T08:20:50.133Z,7.95
2023-01-10T08:23:17.872Z,7.78
2023-01-10T08:25:45.459Z,8.06
2023-01-10T08:28:12.990Z,7.99
2023-01-10T08:30:41.934Z,8.01
2023-01-10T08:33:10.402Z,8.07
2023-01-10T08:35:41.142Z,8.13
2023-01-10T08:38:09.564Z,8.07
2023-01-10T08:40:37.307Z,7.98
2023-01-10T08:43:05.941Z,8.01
2023-01-10T08:45:34.107Z,7.91
2023-01-10T08:48:03.769Z,8.02
2023-01-10T08:50:32.222Z,7.87
2023-01-10T08:53:00.047Z,7.93
2023-01-10T08:55:28.678Z,7.98
2023-01-10T08:58:12.838Z,8.01
2023-01-10T09:03:45.302Z,7.96
2023-01-10T09:11:30.544Z,7.89
2023-01-10T09:13:58.126Z,7.81
2023-01-10T09:16:25.785Z,7.93
2023-01-10T09:19:02.506Z,7.96
2023-01-10T09:21:43.554Z,7.83
2023-01-10T09:24:35.175Z,7.76
2023-01-10T09:27:11.180Z,7.86
2023-01-10T09:29:43.146Z,7.91
2023-01-10T09:32:15.526Z,7.87
2023-01-10T09:34:48.082Z,7.85
2023-01-10T09:37:15.727Z,7.97
2023-01-10T09:39:43.983Z,7.95
2023-01-10T09:42:25.469Z,7.99
2023-01-10T09:44:58.740Z,7.89
2023-01-10T09:47:33.522Z,7.92
2023-01-10T09:50:12.352Z,7.90
2023-01-10T09:52:45.525Z,7.90
2023-01-10T09:55:21.769Z,7.82
2023-01-10T09:57:50.596Z,7.97
2023-01-10T10:00:21.389Z,7.91
2023-01-10T10:02:52.551Z,7.85
2023-01-10T10:05:22.923Z,7.89
2023-01-10T10:07:53.995Z,8.02
2023-01-10T10:10:28.491Z,8.08
2023-01-10T10:13:05.844Z,7.92
2023-01-10T10:15:43.836Z,7.83
2023-01-10T10:18:17.655Z,8.04
2023-01-10T10:20:59.292Z,7.88
2023-01-10T10:23:50.947Z,7.95
2023-01-10T10:26:23.430Z,7.96
2023-01-10T10:29:07.461Z,7.97
2023-01-10T10:31:50.063Z,8.10
2023-01-10T10:34:25.072Z,8.06
2023-01-10T10:36:56.211Z,7.98
2023-01-10T10:39:36.178Z,8.07
2023-01-10T10:42:05.463Z,7.89
2023-01-10T10:44:37.492Z,8.03
2023-01-10T10:47:12.558Z,8.16
2023-01-10T10:49:44.465Z,8.16
2023-01-10T10:52:21.279Z,8.13
2023-01-10T10:54:51.127Z,8.07
2023-01-10T10:57:19.008Z,8.02
2023-01-10T10:59:49.007Z,7.99
2023-01-10T11:02:26.955Z,8.12
2023-01-10T11:04:57.651Z,8.06
2023-01-10T11:07:29.638Z,8.18
2023-01-10T11:10:13.027Z,8.07
2023-01-10T11:12:45.204Z,8.15
2023-01-10T11:15:12.744Z,8.22
2023-01-10T11:17:41.453Z,8.00
2023-01-10T11:20:16.486Z,7.93
2023-01-10T11:22:49.092Z,8.01
2023-01-10T11:25:18.053Z,8.01
2023-01-10T11:27:48.349Z,8.05
2023-01-10T11:30:19.343Z,8.19
2023-01-10T11:32:51.154Z,8.16
2023-01-10T11:35:22.454Z,8.17
2023-01-10T11:38:01.757Z,8.00
2023-01-10T11:40:30.219Z,8.08
2023-01-10T11:42:59.618Z,8.11
2023-01-10T11:45:31.804Z,8.17
2023-01-10T11:48:56.265Z,8.02
2023-01-10T11:52:01.391Z,8.00
2023-01-10T11:54:32.150Z,8.11
2023-01-10T12:00:25.198Z,7.98
2023-01-10T12:02:55.469Z,8.05
2023-01-10T12:05:26.762Z,8.08
2023-01-10T12:07:55.820Z,8.01
2023-01-10T12:10:38.187Z,8.02
2023-01-10T12:13:42.975Z,8.12
2023-01-10T12:16:23.315Z,8.16
2023-01-10T12:19:13.377Z,8.15
2023-01-10T12:21:50.068Z,8.30
2023-01-10T12:24:21.818Z,8.26
2023-01-10T12:27:18.799Z,8.14
2023-01-10T12:29:50.870Z,8.19
2023-01-10T12:32:21.472Z,8.25
2023-01-10T12:34:52.724Z,8.09
2023-01-10T12:37:23.903Z,8.24
2023-01-10T12:39:55.181Z,8.16
2023-01-10T12:42:49.327Z,8.20
2023-01-10T12:45:21.355Z,8.22
2023-01-10T12:48:00.551Z,8.38
2023-01-10T12:50:32.519Z,8.19
2023-01-10T12:53:04.742Z,8.27
2023-01-10T12:55:36.475Z,8.21
2023-01-10T12:58:06.351Z,8.25
2023-01-10T13:00:47.486Z,8.30
2023-01-10T13:03:20.640Z,8.28
2023-01-10T13:05:59.329Z,8.34
2023-01-10T13:08:28.120Z,8.37
2023-01-10T13:10:58.107Z,8.41
2023-01-10T13:13:34.315Z,8.33
2023-01-10T13:16:11.492Z,8.31
2023-01-10T13:18:39.265Z,8.35
2023-01-10T13:21:13.359Z,8.28
2023-01-10T13:23:48.595Z,8.36
2023-01-10T13:26:16.330Z,8.28
2023-01-10T13:28:55.171Z,8.27
2023-01-10T13:31:25.145Z,8.26
2023-01-10T13:33:55.972Z,8.34
2023-01-10T13:36:26.162Z,8.21
2023-01-10T13:38:56.247Z,8.35
2023-01-10T13:41:42.751Z,8.32
2023-01-10T13:44:13.714Z,8.26
2023-01-10T13:46:50.047Z,8.20
2023-01-10T13:49:47.844Z,8.21
2023-01-10T13:52:39.516Z,8.23
2023-01-10T13:55:36.057Z,8.26
2023-01-10T13:58:05.796Z,8.13
2023-01-10T14:01:04.712Z,8.12
2023-01-10T14:03:51.106Z,8.21
2023-01-10T14:06:42.622Z,8.19
2023-01-10T14:09:39.826Z,8.25
2023-01-10T14:12:23.490Z,8.15
2023-01-10T14:15:22.669Z,8.20
2023-01-10T14:17:58.921Z,8.27
2023-01-10T14:20:35.082Z,8.20
2023-01-10T14:23:30.805Z,8.17
2023-01-10T14:28:41.634Z,8.20
2023-01-10T14:31:13.737Z,8.13
2023-01-10T14:33:44.222Z,8.19
2023-01-10T14:36:17.989Z,8.05
2023-01-10T14:38:46.459Z,8.11
2023-01-10T14:41:18.735Z,8.08
2023-01-10T14:43:49.351Z,8.04
2023-01-10T14:46:19.072Z,8.11
2023-01-10T14:48:51.529Z,8.05
2023-01-10T14:51:22.660Z,8.00
2023-01-10T14:54:10.004Z,7.98
2023-01-10T14:56:39.891Z,8.03
2023-01-10T14:59:26.770Z,7.96
2023-01-10T15:01:59.734Z,8.08
2023-01-10T15:04:31.032Z,8.04
2023-01-10T15:07:04.739Z,8.05
2023-01-10T15:09:33.349Z,8.07
2023-01-10T15:12:02.814Z,7.95
2023-01-10T15:14:30.756Z,7.98
2023-01-10T15:17:02.332Z,8.00
2023-01-10T15:19:36.065Z,8.04
2023-01-10T15:22:04.719Z,7.95
2023-01-10T15:24:34.612Z,7.85
2023-01-10T15:27:04.368Z,7.90
2023-01-10T15:29:32.202Z,7.69
2023-01-10T15:32:11.049Z,7.85
2023-01-10T15:34:42.492Z,7.81
2023-01-10T15:37:20.040Z,7.83
2023-01-10T15:39:48.107Z,7.83
2023-01-10T15:42:15.916Z,7.86
2023-01-10T15:44:45.939Z,7.78
2023-01-10T15:47:36.817Z,7.86
2023-01-10T15:50:19.330Z,7.87
2023-01-10T15:52:50.671Z,7.96
2023-01-10T15:55:37.731Z,7.91
2023-01-10T15:58:06.510Z,7.91
2023-01-10T16:00:34.315Z,7.95
2023-01-10T16:03:04.204Z,8.00
2023-01-10T16:05:33.181Z,7.79
2023-01-10T16:08:01.815Z,7.91
2023-01-10T16:10:29.770Z,7.70
2023-01-10T16:13:27.972Z,7.72
2023-01-10T16:15:56.882Z,7.78
2023-01-10T16:18:25.082Z,7.65
2023-01-10T16:20:56.370Z,7.78
2023-01-10T16:23:25.476Z,7.64
2023-01-10T16:25:54.650Z,7.77
2023-01-10T16:28:22.839Z,7.74
2023-01-10T16:30:50.754Z,7.67
2023-01-10T16:33:23.259Z,7.67
2023-01-10T16:35:54.532Z,7.66
2023-01-10T16:38:23.210Z,7.71
2023-01-10T16:40:53.484Z,7.65
2023-01-10T16:43:23.836Z,7.55
2023-01-10T16:45:54.924Z,7.55
2023-01-10T16:48:22.485Z,7.61
2023-01-10T16:53:39.274Z,7.54
2023-01-10T16:56:08.306Z,7.53
2023-01-10T16:58:35.847Z,7.49
2023-01-10T17:01:03.491Z,7.44
2023-01-10T17:03:34.230Z,7.43
2023-01-10T17:06:03.084Z,7.44
2023-01-10T17:08:30.665Z,7.45
2023-01-10T17:11:05.691Z,7.43
2023-01-10T17:13:36.219Z,7.43
2023-01-10T17:16:04.478Z,7.49
2023-01-10T17:18:32.004Z,7.52
2023-01-10T17:20:59.705Z,7.40
2023-01-10T17:23:29.472Z,7.46
2023-01-10T17:26:00.700Z,7.42
2023-01-10T17:28:28.851Z,7.41
2023-01-10T17:30:56.692Z,7.49
2023-01-10T17:33:27.288Z,7.51
2023-01-10T17:35:58.330Z,7.43
2023-01-10T17:38:28.840Z,7.44
2023-01-10T17:41:04.082Z,7.39
2023-01-10T17:43:32.168Z,7.35
2023-01-10T17:45:59.803Z,7.40
2023-01-10T17:48:27.870Z,7.27
2023-01-10T17:50:58.130Z,7.38
2023-01-10T17:53:26.208Z,7.30
2023-01-10T17:56:18.205Z,7.37
2023-01-10T17:58:47.360Z,7.25
2023-01-10T18:01:18.788Z,7.33
2023-01-10T18:03:46.333Z,7.32
2023-01-10T18:06:23.348Z,7.25
2023-01-10T18:08:51.394Z,7.29
2023-01-10T18:11:18.873Z,7.26
2023-01-10T18:13:47.581Z,7.20
2023-01-10T18:16:15.067Z,7.27
2023-01-10T18:18:42.468Z,7.21
2023-01-10T18:21:13.618Z,7.18
2023-01-10T18:23:41.027Z,7.20
2023-01-10T18:26:09.905Z,7.28
2023-01-10T18:28:41.734Z,7.26
2023-01-10T18:31:13.165Z,7.14
2023-01-10T18:33:40.700Z,7.18
2023-01-10T18:36:09.411Z,7.25
2023-01-10T18:38:37.679Z,7.19
2023-01-10T18:41:05.309Z,7.14
2023-01-10T18:43:33.054Z,7.19
2023-01-10T18:46:04.534Z,7.17
2023-01-10T18:48:33.643Z,7.17
2023-01-10T18:51:02.536Z,7.21
2023-01-10T18:53:30.421Z,7.11
2023-01-10T18:55:59.405Z,7.21
2023-01-10T18:58:27.950Z,7.18
2023-01-10T19:00:55.895Z,7.10
2023-01-10T19:03:23.782Z,7.09
2023-01-10T19:05:52.742Z,7.08
2023-01-10T19:08:20.270Z,7.13
2023-01-10T19:11:11.793Z,7.12
2023-01-10T19:13:35.840Z,7.15
2023-01-10T19:16:11.393Z,7.13
2023-01-10T19:18:38.886Z,7.20
2023-01-10T19:21:15.013Z,7.12
2023-01-10T19:23:42.684Z,7.09
2023-01-10T19:26:10.209Z,7.08
2023-01-10T19:28:37.724Z,7.08
2023-01-10T19:31:05.726Z,7.11
2023-01-10T19:33:34.203Z,7.10
2023-01-10T19:36:07.841Z,7.15
2023-01-10T19:38:35.299Z,7.29
2023-01-10T19:41:03.581Z,7.18
2023-01-10T19:43:31.023Z,7.21
2023-01-10T19:45:58.505Z,7.14
2023-01-10T19:48:26.198Z,7.10
2023-01-10T19:50:53.758Z,7.06
2023-01-10T19:53:27.076Z,7.05
2023-01-10T19:56:05.795Z,6.99
2023-01-10T19:58:33.422Z,7.04
2023-01-10T20:01:08.396Z,7.09
2023-01-10T20:03:35.811Z,7.15
2023-01-10T20:06:04.663Z,7.16
2023-01-10T20:08:33.535Z,7.05
2023-01-10T20:11:04.459Z,7.14
2023-01-10T20:13:32.639Z,7.05
2023-01-10T20:16:00.305Z,7.10
2023-01-10T20:18:28.224Z,7.02
2023-01-10T20:20:55.854Z,7.14
2023-01-10T20:23:23.557Z,7.09
2023-01-10T20:26:03.101Z,7.06
2023-01-10T20:28:31.468Z,7.12
2023-01-10T20:31:00.171Z,7.02
2023-01-10T20:33:28.079Z,7.02
2023-01-10T20:35:57.070Z,7.08
2023-01-10T20:38:24.592Z,7.04
2023-01-10T20:40:52.391Z,7.03
2023-01-10T20:43:21.216Z,7.06
2023-01-10T20:45:48.708Z,7.03
2023-01-10T20:48:16.139Z,7.10
2023-01-10T20:50:43.926Z,6.99
2023-01-10T20:53:13.920Z,7.04
2023-01-10T20:55:41.553Z,7.05
2023-01-10T20:58:09.691Z,6.97
2023-01-10T21:00:38.977Z,6.93
2023-01-10T21:03:06.638Z,6.95
2023-01-10T21:05:35.975Z,6.85
2023-01-10T21:08:04.058Z,6.94
2023-01-10T21:10:31.539Z,6.89
2023-01-10T21:12:58.953Z,6.85
2023-01-10T21:15:26.622Z,6.88
2023-01-10T21:17:55.443Z,6.80
2023-01-10T21:20:22.989Z,6.81
2023-01-10T21:22:50.484Z,6.89
2023-01-10T21:25:18.401Z,6.81
2023-01-10T21:27:45.934Z,6.76
2023-01-10T21:30:14.384Z,6.85
2023-01-10T21:32:42.251Z,6.73
2023-01-10T21:35:11.126Z,6.74
2023-01-10T21:37:38.804Z,6.73
2023-01-10T21:40:07.710Z,6.71
2023-01-10T21:42:47.892Z,6.73
2023-01-10T21:45:23.839Z,6.75
2023-01-10T21:47:52.484Z,6.60
2023-01-10T21:53:23.171Z,6.66
2023-01-10T21:55:51.925Z,6.60
2023-01-10T21:58:27.892Z,6.57
2023-01-10T22:04:21.361Z,6.58
2023-01-10T22:30:17.119Z,6.54
2023-01-10T22:57:07.633Z,6.45
2023-01-10T23:02:47.703Z,6.48
2023-01-10T23:08:37.315Z,6.49
2023-01-10T23:11:09.541Z,6.49
2023-01-10T23:13:40.368Z,6.42
2023-01-10T23:19:19.663Z,6.45
2023-01-10T23:34:07.840Z,6.51
2023-01-10T23:36:36.762Z,6.48
2023-01-10T23:39:05.242Z,6.52
2023-01-10T23:44:27.989Z,6.56
2023-01-10T23:47:14.459Z,6.60
2023-01-10T23:49:57.859Z,6.54
2023-01-10T23:52:38.935Z,6.63
2023-01-10T23:56:08.381Z,6.63
2023-01-10T23:58:41.719Z,6.54
